sensor_id;sensor_type;location;lat;lon;timestamp;pressure;altitude;pressure_sealevel;temperature;humidity
8703;BME280;9002;42.708;23.186;2024-02-04T00:02:14;95398.13;;;7.99;53.24
8703;BME280;9002;42.708;23.186;2024-02-04T00:04:41;95391.63;;;7.90;53.00
8703;BME280;9002;42.708;23.186;2024-02-04T00:07:09;95341.81;;;7.71;53.33
8703;BME280;9002;42.708;23.186;2024-02-04T00:09:36;95392.03;;;7.93;53.20
8703;BME280;9002;42.708;23.186;2024-02-04T00:12:03;95417.81;;;7.93;53.18
8703;BME280;9002;42.708;23.186;2024-02-04T00:14:31;95403.56;;;7.91;52.77
8703;BME280;9002;42.708;23.186;2024-02-04T00:16:58;95388.09;;;7.91;53.24
8703;BME280;9002;42.708;23.186;2024-02-04T00:19:25;95401.97;;;7.90;53.26
8703;BME280;9002;42.708;23.186;2024-02-04T00:21:52;95396.09;;;7.83;53.52
8703;BME280;9002;42.708;23.186;2024-02-04T00:24:21;95386.81;;;7.75;53.81
8703;BME280;9002;42.708;23.186;2024-02-04T00:26:48;95408.19;;;7.82;53.74
8703;BME280;9002;42.708;23.186;2024-02-04T00:29:15;95387.97;;;7.79;53.68
8703;BME280;9002;42.708;23.186;2024-02-04T00:31:42;95398.84;;;7.81;53.86
8703;BME280;9002;42.708;23.186;2024-02-04T00:34:09;95385.38;;;7.79;54.21
8703;BME280;9002;42.708;23.186;2024-02-04T00:36:36;95379.81;;;7.82;53.56
8703;BME280;9002;42.708;23.186;2024-02-04T00:39:02;95392.25;;;7.92;54.15
8703;BME280;9002;42.708;23.186;2024-02-04T00:41:32;95373.13;;;7.75;54.11
8703;BME280;9002;42.708;23.186;2024-02-04T00:43:59;95393.06;;;7.86;53.58
8703;BME280;9002;42.708;23.186;2024-02-04T00:46:26;95367.25;;;7.67;54.14
8703;BME280;9002;42.708;23.186;2024-02-04T00:48:53;95354.00;;;7.64;53.74
8703;BME280;9002;42.708;23.186;2024-02-04T00:51:20;95388.34;;;7.83;54.63
8703;BME280;9002;42.708;23.186;2024-02-04T00:53:48;95363.03;;;7.73;54.83
8703;BME280;9002;42.708;23.186;2024-02-04T00:56:15;95387.88;;;7.92;54.50
8703;BME280;9002;42.708;23.186;2024-02-04T00:58:43;95359.06;;;7.71;54.67
8703;BME280;9002;42.708;23.186;2024-02-04T01:01:10;95383.34;;;7.88;54.75
8703;BME280;9002;42.708;23.186;2024-02-04T01:03:37;95390.00;;;7.95;54.87
8703;BME280;9002;42.708;23.186;2024-02-04T01:06:04;95373.06;;;7.81;54.93
8703;BME280;9002;42.708;23.186;2024-02-04T01:08:31;95379.19;;;7.87;54.86
8703;BME280;9002;42.708;23.186;2024-02-04T01:11:00;95366.31;;;7.80;55.01
8703;BME280;9002;42.708;23.186;2024-02-04T01:13:28;95382.19;;;7.84;55.00
8703;BME280;9002;42.708;23.186;2024-02-04T01:15:56;95383.72;;;7.91;55.22
8703;BME280;9002;42.708;23.186;2024-02-04T01:18:23;95391.63;;;7.90;54.93
8703;BME280;9002;42.708;23.186;2024-02-04T01:20:50;95392.06;;;7.87;55.62
8703;BME280;9002;42.708;23.186;2024-02-04T01:23:17;95385.13;;;7.87;56.04
8703;BME280;9002;42.708;23.186;2024-02-04T01:25:45;95374.22;;;7.85;55.83
8703;BME280;9002;42.708;23.186;2024-02-04T01:28:12;95381.66;;;8.00;55.70
8703;BME280;9002;42.708;23.186;2024-02-04T01:30:39;95354.03;;;7.82;55.85
8703;BME280;9002;42.708;23.186;2024-02-04T01:33:07;95377.47;;;7.99;55.75
8703;BME280;9002;42.708;23.186;2024-02-04T01:35:34;95370.81;;;7.91;56.46
8703;BME280;9002;42.708;23.186;2024-02-04T01:38:01;95329.31;;;7.75;55.45
8703;BME280;9002;42.708;23.186;2024-02-04T01:40:28;95324.97;;;7.68;55.88
8703;BME280;9002;42.708;23.186;2024-02-04T01:42:56;95354.03;;;7.82;56.43
8703;BME280;9002;42.708;23.186;2024-02-04T01:45:23;95363.38;;;8.02;55.85
8703;BME280;9002;42.708;23.186;2024-02-04T01:47:51;95350.19;;;7.91;55.54
8703;BME280;9002;42.708;23.186;2024-02-04T01:50:20;95341.72;;;7.84;56.17
8703;BME280;9002;42.708;23.186;2024-02-04T01:52:47;95339.28;;;7.89;56.44
8703;BME280;9002;42.708;23.186;2024-02-04T01:55:15;95361.38;;;8.04;56.59
8703;BME280;9002;42.708;23.186;2024-02-04T01:57:42;95346.13;;;8.02;55.63
8703;BME280;9002;42.708;23.186;2024-02-04T02:00:10;95347.47;;;8.05;55.89
8703;BME280;9002;42.708;23.186;2024-02-04T02:02:39;95363.38;;;8.02;56.24
8703;BME280;9002;42.708;23.186;2024-02-04T02:05:07;95367.31;;;8.04;56.10
8703;BME280;9002;42.708;23.186;2024-02-04T02:07:36;95345.84;;;8.10;56.37
8703;BME280;9002;42.708;23.186;2024-02-04T02:10:03;95359.31;;;8.12;55.90
8703;BME280;9002;42.708;23.186;2024-02-04T02:12:35;95335.56;;;8.04;55.99
8703;BME280;9002;42.708;23.186;2024-02-04T02:15:10;95344.66;;;8.06;56.12
8703;BME280;9002;42.708;23.186;2024-02-04T02:17:41;95349.03;;;8.06;56.64
8703;BME280;9002;42.708;23.186;2024-02-04T02:20:19;95358.09;;;8.15;56.62
8703;BME280;9002;42.708;23.186;2024-02-04T02:22:50;95353.94;;;8.14;56.42
8703;BME280;9002;42.708;23.186;2024-02-04T02:25:20;95347.19;;;8.13;56.18
8703;BME280;9002;42.708;23.186;2024-02-04T02:27:48;95339.50;;;8.06;56.65
8703;BME280;9002;42.708;23.186;2024-02-04T02:30:15;95333.22;;;8.02;56.56
8703;BME280;9002;42.708;23.186;2024-02-04T02:32:43;95349.09;;;7.99;56.61
8703;BME280;9002;42.708;23.186;2024-02-04T02:35:11;95346.53;;;8.17;56.13
8703;BME280;9002;42.708;23.186;2024-02-04T02:37:43;95338.22;;;8.15;56.34
8703;BME280;9002;42.708;23.186;2024-02-04T02:40:16;95356.44;;;8.20;56.23
8703;BME280;9002;42.708;23.186;2024-02-04T02:42:52;95334.00;;;8.21;56.37
8703;BME280;9002;42.708;23.186;2024-02-04T02:45:21;95344.69;;;8.24;55.56
8703;BME280;9002;42.708;23.186;2024-02-04T02:47:51;95323.25;;;8.06;55.84
8703;BME280;9002;42.708;23.186;2024-02-04T02:50:18;95335.66;;;8.15;56.11
8703;BME280;9002;42.708;23.186;2024-02-04T02:52:45;95345.63;;;8.12;56.55
8703;BME280;9002;42.708;23.186;2024-02-04T02:55:12;95334.72;;;8.10;55.86
8703;BME280;9002;42.708;23.186;2024-02-04T02:57:39;95335.03;;;8.20;56.14
8703;BME280;9002;42.708;23.186;2024-02-04T03:00:09;95348.56;;;8.15;55.81
8703;BME280;9002;42.708;23.186;2024-02-04T03:02:36;95305.97;;;8.06;55.54
8703;BME280;9002;42.708;23.186;2024-02-04T03:05:04;95326.06;;;8.22;55.61
8703;BME280;9002;42.708;23.186;2024-02-04T03:07:31;95336.53;;;8.28;55.58
8703;BME280;9002;42.708;23.186;2024-02-04T03:09:57;95335.38;;;8.23;56.02
8703;BME280;9002;42.708;23.186;2024-02-04T03:12:24;95344.47;;;8.26;55.54
8703;BME280;9002;42.708;23.186;2024-02-04T03:14:51;95328.53;;;8.36;55.74
8703;BME280;9002;42.708;23.186;2024-02-04T03:17:19;95319.44;;;8.26;55.71
8703;BME280;9002;42.708;23.186;2024-02-04T03:19:47;95297.66;;;8.22;55.89
8703;BME280;9002;42.708;23.186;2024-02-04T03:22:17;95323.03;;;8.25;55.61
8703;BME280;9002;42.708;23.186;2024-02-04T03:24:44;95311.56;;;8.21;56.66
8703;BME280;9002;42.708;23.186;2024-02-04T03:27:11;95319.19;;;8.35;55.65
8703;BME280;9002;42.708;23.186;2024-02-04T03:29:38;95312.81;;;8.37;56.05
8703;BME280;9002;42.708;23.186;2024-02-04T03:32:05;95309.50;;;8.30;56.10
8703;BME280;9002;42.708;23.186;2024-02-04T03:34:33;95314.63;;;8.37;56.34
8703;BME280;9002;42.708;23.186;2024-02-04T03:37:01;95312.81;;;8.37;56.02
8703;BME280;9002;42.708;23.186;2024-02-04T03:39:28;95309.66;;;8.35;55.81
8703;BME280;9002;42.708;23.186;2024-02-04T03:41:55;95308.88;;;8.35;55.54
8703;BME280;9002;42.708;23.186;2024-02-04T03:44:22;95289.78;;;8.17;55.98
8703;BME280;9002;42.708;23.186;2024-02-04T03:46:48;95285.63;;;8.35;56.07
8703;BME280;9002;42.708;23.186;2024-02-04T03:49:16;95272.22;;;8.26;56.06
8703;BME280;9002;42.708;23.186;2024-02-04T03:51:44;95259.25;;;8.14;55.97
8703;BME280;9002;42.708;23.186;2024-02-04T03:54:11;95260.53;;;8.23;55.76
8703;BME280;9002;42.708;23.186;2024-02-04T03:56:38;95260.53;;;8.05;56.41
8703;BME280;9002;42.708;23.186;2024-02-04T03:59:05;95288.28;;;8.28;56.11
8703;BME280;9002;42.708;23.186;2024-02-04T04:01:36;95301.81;;;8.23;55.91
8703;BME280;9002;42.708;23.186;2024-02-04T04:04:03;95312.72;;;8.25;56.67
8703;BME280;9002;42.708;23.186;2024-02-04T04:06:31;95288.47;;;8.08;55.59
8703;BME280;9002;42.708;23.186;2024-02-04T04:08:59;95279.25;;;8.01;55.45
8703;BME280;9002;42.708;23.186;2024-02-04T04:11:29;95298.81;;;8.08;56.92
8703;BME280;9002;42.708;23.186;2024-02-04T04:13:58;95289.94;;;8.04;56.63
8703;BME280;9002;42.708;23.186;2024-02-04T04:16:25;95297.38;;;8.31;57.62
8703;BME280;9002;42.708;23.186;2024-02-04T04:18:53;95312.22;;;8.35;56.93
8703;BME280;9002;42.708;23.186;2024-02-04T04:21:20;95293.22;;;8.30;56.34
8703;BME280;9002;42.708;23.186;2024-02-04T04:23:47;95292.19;;;8.37;56.58
8703;BME280;9002;42.708;23.186;2024-02-04T04:26:16;95295.56;;;8.38;56.77
8703;BME280;9002;42.708;23.186;2024-02-04T04:28:43;95310.03;;;8.39;57.30
8703;BME280;9002;42.708;23.186;2024-02-04T04:31:09;95313.63;;;8.38;57.23
8703;BME280;9002;42.708;23.186;2024-02-04T04:33:36;95299.97;;;8.31;56.16
8703;BME280;9002;42.708;23.186;2024-02-04T04:36:04;95312.53;;;8.45;56.20
8703;BME280;9002;42.708;23.186;2024-02-04T04:38:31;95309.16;;;8.45;56.93
8703;BME280;9002;42.708;23.186;2024-02-04T04:40:57;95319.63;;;8.50;57.08
8703;BME280;9002;42.708;23.186;2024-02-04T04:43:26;95305.28;;;8.54;57.66
8703;BME280;9002;42.708;23.186;2024-02-04T04:45:53;95305.97;;;8.61;57.10
8703;BME280;9002;42.708;23.186;2024-02-04T04:48:19;95305.34;;;8.66;56.93
8703;BME280;9002;42.708;23.186;2024-02-04T04:51:07;95299.22;;;8.60;57.24
8703;BME280;9002;42.708;23.186;2024-02-04T04:53:48;95315.38;;;8.74;56.92
8703;BME280;9002;42.708;23.186;2024-02-04T04:56:15;95316.56;;;8.71;56.69
8703;BME280;9002;42.708;23.186;2024-02-04T04:58:43;95314.13;;;8.76;57.29
8703;BME280;9002;42.708;23.186;2024-02-04T05:01:10;95305.66;;;8.69;57.21
8703;BME280;9002;42.708;23.186;2024-02-04T05:03:40;95303.47;;;8.73;56.04
8703;BME280;9002;42.708;23.186;2024-02-04T05:06:07;95316.28;;;8.79;56.18
8703;BME280;9002;42.708;23.186;2024-02-04T05:08:34;95292.97;;;8.68;55.29
8703;BME280;9002;42.708;23.186;2024-02-04T05:11:01;95290.63;;;8.66;56.42
8703;BME280;9002;42.708;23.186;2024-02-04T05:13:28;95314.47;;;8.80;55.93
8703;BME280;9002;42.708;23.186;2024-02-04T05:15:56;95309.53;;;8.78;55.72
8703;BME280;9002;42.708;23.186;2024-02-04T05:18:24;95304.03;;;8.75;56.10
8703;BME280;9002;42.708;23.186;2024-02-04T05:20:52;95297.94;;;8.69;55.79
8703;BME280;9002;42.708;23.186;2024-02-04T05:23:19;95327.50;;;8.73;56.70
8703;BME280;9002;42.708;23.186;2024-02-04T05:25:46;95319.16;;;8.71;56.35
8703;BME280;9002;42.708;23.186;2024-02-04T05:28:13;95299.22;;;8.60;56.77
8703;BME280;9002;42.708;23.186;2024-02-04T05:30:40;95281.91;;;8.49;55.97
8703;BME280;9002;42.708;23.186;2024-02-04T05:33:08;95310.44;;;8.54;55.91
8703;BME280;9002;42.708;23.186;2024-02-04T05:35:35;95315.88;;;8.64;56.49
8703;BME280;9002;42.708;23.186;2024-02-04T05:38:03;95311.84;;;8.68;55.37
8703;BME280;9002;42.708;23.186;2024-02-04T05:40:30;95300.72;;;8.68;55.71
8703;BME280;9002;42.708;23.186;2024-02-04T05:42:57;95311.78;;;8.75;55.59
8703;BME280;9002;42.708;23.186;2024-02-04T05:45:24;95307.69;;;8.67;54.64
8703;BME280;9002;42.708;23.186;2024-02-04T05:47:50;95316.44;;;8.66;54.78
8703;BME280;9002;42.708;23.186;2024-02-04T05:50:19;95314.88;;;8.65;54.71
8703;BME280;9002;42.708;23.186;2024-02-04T05:52:46;95325.22;;;8.65;54.87
8703;BME280;9002;42.708;23.186;2024-02-04T05:55:14;95315.09;;;8.64;54.47
8703;BME280;9002;42.708;23.186;2024-02-04T05:57:41;95335.09;;;8.68;54.99
8703;BME280;9002;42.708;23.186;2024-02-04T06:00:09;95321.28;;;8.63;55.34
8703;BME280;9002;42.708;23.186;2024-02-04T06:02:37;95339.91;;;8.65;54.78
8703;BME280;9002;42.708;23.186;2024-02-04T06:05:04;95322.47;;;8.60;54.82
8703;BME280;9002;42.708;23.186;2024-02-04T06:07:32;95325.44;;;8.64;55.16
8703;BME280;9002;42.708;23.186;2024-02-04T06:09:59;95287.25;;;8.36;54.80
8703;BME280;9002;42.708;23.186;2024-02-04T06:12:29;95303.72;;;8.35;54.38
8703;BME280;9002;42.708;23.186;2024-02-04T06:14:56;95328.34;;;8.67;53.85
8703;BME280;9002;42.708;23.186;2024-02-04T06:17:23;95322.63;;;8.65;55.29
8703;BME280;9002;42.708;23.186;2024-02-04T06:19:51;95339.34;;;8.63;54.59
8703;BME280;9002;42.708;23.186;2024-02-04T06:22:21;95356.91;;;8.72;54.24
8703;BME280;9002;42.708;23.186;2024-02-04T06:24:49;95340.13;;;8.63;54.03
8703;BME280;9002;42.708;23.186;2024-02-04T06:27:16;95344.28;;;8.64;54.13
8703;BME280;9002;42.708;23.186;2024-02-04T06:29:43;95364.22;;;8.75;54.12
8703;BME280;9002;42.708;23.186;2024-02-04T06:32:10;95336.41;;;8.59;53.65
8703;BME280;9002;42.708;23.186;2024-02-04T06:34:40;95356.31;;;8.70;53.49
8703;BME280;9002;42.708;23.186;2024-02-04T06:37:07;95366.88;;;8.69;53.61
8703;BME280;9002;42.708;23.186;2024-02-04T06:39:34;95358.47;;;8.73;54.39
8703;BME280;9002;42.708;23.186;2024-02-04T06:42:03;95354.63;;;8.64;53.68
8703;BME280;9002;42.708;23.186;2024-02-04T06:44:31;95383.22;;;8.81;54.60
8703;BME280;9002;42.708;23.186;2024-02-04T06:46:58;95375.78;;;8.73;53.97
8703;BME280;9002;42.708;23.186;2024-02-04T06:49:25;95361.19;;;8.78;54.64
8703;BME280;9002;42.708;23.186;2024-02-04T06:51:52;95370.94;;;8.76;55.04
8703;BME280;9002;42.708;23.186;2024-02-04T06:54:22;95340.47;;;8.67;55.30
8703;BME280;9002;42.708;23.186;2024-02-04T06:56:51;95399.50;;;8.81;54.59
8703;BME280;9002;42.708;23.186;2024-02-04T06:59:20;95359.69;;;8.71;54.74
8703;BME280;9002;42.708;23.186;2024-02-04T07:01:46;95372.19;;;8.74;55.08
8703;BME280;9002;42.708;23.186;2024-02-04T07:04:13;95352.59;;;8.66;54.75
8703;BME280;9002;42.708;23.186;2024-02-04T07:06:40;95371.97;;;8.75;54.88
8703;BME280;9002;42.708;23.186;2024-02-04T07:09:07;95393.97;;;8.78;54.89
8703;BME280;9002;42.708;23.186;2024-02-04T07:11:35;95377.75;;;8.71;55.12
8703;BME280;9002;42.708;23.186;2024-02-04T07:14:02;95379.03;;;8.80;55.19
8703;BME280;9002;42.708;23.186;2024-02-04T07:16:30;95389.38;;;8.80;55.26
8703;BME280;9002;42.708;23.186;2024-02-04T07:18:57;95390.16;;;8.80;55.34
8703;BME280;9002;42.708;23.186;2024-02-04T07:21:24;95381.44;;;8.81;55.72
8703;BME280;9002;42.708;23.186;2024-02-04T07:23:51;95377.69;;;8.77;54.91
8703;BME280;9002;42.708;23.186;2024-02-04T07:26:18;95373.19;;;8.73;55.77
8703;BME280;9002;42.708;23.186;2024-02-04T07:28:48;95406.25;;;8.82;54.67
8703;BME280;9002;42.708;23.186;2024-02-04T07:31:15;95392.41;;;8.77;55.32
8703;BME280;9002;42.708;23.186;2024-02-04T07:33:44;95377.13;;;8.75;55.53
8703;BME280;9002;42.708;23.186;2024-02-04T07:36:11;95367.34;;;8.77;54.45
8703;BME280;9002;42.708;23.186;2024-02-04T07:38:38;95296.53;;;8.18;55.03
8703;BME280;9002;42.708;23.186;2024-02-04T07:41:05;95332.25;;;8.58;55.05
8703;BME280;9002;42.708;23.186;2024-02-04T07:43:35;95365.63;;;8.71;54.29
8703;BME280;9002;42.708;23.186;2024-02-04T07:46:03;95373.88;;;8.80;55.02
8703;BME280;9002;42.708;23.186;2024-02-04T07:48:30;95385.19;;;8.97;54.31
8703;BME280;9002;42.708;23.186;2024-02-04T07:50:58;95373.09;;;8.79;53.74
8703;BME280;9002;42.708;23.186;2024-02-04T07:53:28;95369.66;;;8.86;54.02
8703;BME280;9002;42.708;23.186;2024-02-04T07:55:55;95387.59;;;8.99;53.25
8703;BME280;9002;42.708;23.186;2024-02-04T07:58:22;95381.81;;;8.97;52.66
8703;BME280;9002;42.708;23.186;2024-02-04T08:00:49;95388.72;;;9.03;53.61
8703;BME280;9002;42.708;23.186;2024-02-04T08:03:16;95385.34;;;9.02;53.50
8703;BME280;9002;42.708;23.186;2024-02-04T08:05:43;95385.25;;;9.09;53.82
8703;BME280;9002;42.708;23.186;2024-02-04T08:08:12;95390.31;;;9.16;52.15
8703;BME280;9002;42.708;23.186;2024-02-04T08:10:39;95356.66;;;8.92;52.69
8703;BME280;9002;42.708;23.186;2024-02-04T08:13:07;95387.22;;;9.25;53.37
8703;BME280;9002;42.708;23.186;2024-02-04T08:15:34;95392.38;;;9.25;52.35
8703;BME280;9002;42.708;23.186;2024-02-04T08:18:01;95398.38;;;9.26;52.93
8703;BME280;9002;42.708;23.186;2024-02-04T08:20:28;95395.06;;;9.19;53.32
8703;BME280;9002;42.708;23.186;2024-02-04T08:22:55;95354.84;;;8.93;52.85
8703;BME280;9002;42.708;23.186;2024-02-04T08:25:23;95380.94;;;9.33;51.85
8703;BME280;9002;42.708;23.186;2024-02-04T08:27:51;95380.78;;;9.46;52.14
8703;BME280;9002;42.708;23.186;2024-02-04T08:30:18;95395.59;;;9.51;51.87
8703;BME280;9002;42.708;23.186;2024-02-04T08:32:45;95374.13;;;9.50;51.31
8703;BME280;9002;42.708;23.186;2024-02-04T08:35:12;95383.72;;;9.61;51.63
8703;BME280;9002;42.708;23.186;2024-02-04T08:37:39;95387.19;;;9.44;51.44
8703;BME280;9002;42.708;23.186;2024-02-04T08:40:07;95372.56;;;9.49;52.40
8703;BME280;9002;42.708;23.186;2024-02-04T08:42:36;95366.34;;;9.38;52.35
8703;BME280;9002;42.708;23.186;2024-02-04T08:45:04;95352.97;;;9.42;52.93
8703;BME280;9002;42.708;23.186;2024-02-04T08:47:40;95331.16;;;9.26;51.48
8703;BME280;9002;42.708;23.186;2024-02-04T08:50:08;95392.34;;;9.44;52.37
8703;BME280;9002;42.708;23.186;2024-02-04T08:52:37;95383.91;;;9.48;51.79
8703;BME280;9002;42.708;23.186;2024-02-04T08:55:05;95385.56;;;9.43;52.39
8703;BME280;9002;42.708;23.186;2024-02-04T08:57:32;95377.72;;;9.37;53.08
8703;BME280;9002;42.708;23.186;2024-02-04T09:00:01;95394.59;;;9.52;52.40
8703;BME280;9002;42.708;23.186;2024-02-04T09:02:28;95392.53;;;9.30;52.94
8703;BME280;9002;42.708;23.186;2024-02-04T09:04:55;95387.19;;;9.44;52.51
8703;BME280;9002;42.708;23.186;2024-02-04T09:07:22;95383.31;;;9.34;52.94
8703;BME280;9002;42.708;23.186;2024-02-04T09:09:49;95394.47;;;9.47;52.21
8703;BME280;9002;42.708;23.186;2024-02-04T09:12:16;95399.81;;;9.33;53.38
8703;BME280;9002;42.708;23.186;2024-02-04T09:14:43;95397.25;;;9.33;52.47
8703;BME280;9002;42.708;23.186;2024-02-04T09:17:17;95390.50;;;9.32;52.36
8703;BME280;9002;42.708;23.186;2024-02-04T09:19:44;95423.88;;;9.34;52.03
8703;BME280;9002;42.708;23.186;2024-02-04T09:22:11;95382.72;;;9.21;52.35
8703;BME280;9002;42.708;23.186;2024-02-04T09:24:38;95432.22;;;9.36;53.24
8703;BME280;9002;42.708;23.186;2024-02-04T09:27:12;95388.97;;;9.13;53.30
8703;BME280;9002;42.708;23.186;2024-02-04T09:29:39;95410.00;;;9.17;52.55
8703;BME280;9002;42.708;23.186;2024-02-04T09:32:06;95422.13;;;9.46;52.67
8703;BME280;9002;42.708;23.186;2024-02-04T09:34:35;95408.72;;;9.37;53.49
8703;BME280;9002;42.708;23.186;2024-02-04T09:37:02;95417.88;;;9.52;52.56
8703;BME280;9002;42.708;23.186;2024-02-04T09:39:29;95412.63;;;9.70;52.64
8703;BME280;9002;42.708;23.186;2024-02-04T09:41:58;95407.41;;;9.47;53.68
8703;BME280;9002;42.708;23.186;2024-02-04T09:44:26;95395.44;;;9.64;53.87
8703;BME280;9002;42.708;23.186;2024-02-04T09:46:55;95344.22;;;9.43;53.56
8703;BME280;9002;42.708;23.186;2024-02-04T09:49:25;95360.00;;;9.64;52.27
8703;BME280;9002;42.708;23.186;2024-02-04T09:51:55;95414.81;;;9.96;52.32
8703;BME280;9002;42.708;23.186;2024-02-04T09:54:23;95408.97;;;10.13;52.06
8703;BME280;9002;42.708;23.186;2024-02-04T09:56:51;95422.16;;;10.11;51.81
8703;BME280;9002;42.708;23.186;2024-02-04T09:59:18;95436.31;;;10.09;52.77
8703;BME280;9002;42.708;23.186;2024-02-04T10:01:46;95409.81;;;10.25;51.67
8703;BME280;9002;42.708;23.186;2024-02-04T10:04:14;95396.97;;;10.30;51.25
8703;BME280;9002;42.708;23.186;2024-02-04T10:06:41;95393.81;;;10.28;52.75
8703;BME280;9002;42.708;23.186;2024-02-04T10:09:09;95351.03;;;10.02;52.78
8703;BME280;9002;42.708;23.186;2024-02-04T10:11:36;95410.38;;;10.27;53.75
8703;BME280;9002;42.708;23.186;2024-02-04T10:14:03;95404.72;;;10.30;53.89
8703;BME280;9002;42.708;23.186;2024-02-04T10:16:35;95404.97;;;10.29;52.71
8703;BME280;9002;42.708;23.186;2024-02-04T10:19:02;95420.72;;;10.39;53.09
8703;BME280;9002;42.708;23.186;2024-02-04T10:21:29;95387.50;;;10.24;52.91
8703;BME280;9002;42.708;23.186;2024-02-04T10:23:56;95411.03;;;10.34;53.56
8703;BME280;9002;42.708;23.186;2024-02-04T10:26:28;95422.38;;;10.33;52.77
8703;BME280;9002;42.708;23.186;2024-02-04T10:28:57;95409.34;;;10.28;53.99
8703;BME280;9002;42.708;23.186;2024-02-04T10:31:25;95407.84;;;10.20;54.52
8703;BME280;9002;42.708;23.186;2024-02-04T10:33:52;95413.81;;;10.21;54.51
8703;BME280;9002;42.708;23.186;2024-02-04T10:36:19;95368.25;;;10.08;54.50
8703;BME280;9002;42.708;23.186;2024-02-04T10:38:46;95383.53;;;10.21;54.51
8703;BME280;9002;42.708;23.186;2024-02-04T10:41:15;95402.59;;;10.27;52.87
8703;BME280;9002;42.708;23.186;2024-02-04T10:43:44;95416.34;;;10.28;53.27
8703;BME280;9002;42.708;23.186;2024-02-04T10:46:13;95410.91;;;10.17;53.55
8703;BME280;9002;42.708;23.186;2024-02-04T10:48:42;95390.84;;;10.13;53.93
8703;BME280;9002;42.708;23.186;2024-02-04T10:51:12;95423.06;;;10.17;54.94
8703;BME280;9002;42.708;23.186;2024-02-04T10:53:41;95404.25;;;10.21;54.72
8703;BME280;9002;42.708;23.186;2024-02-04T10:58:49;95397.28;;;10.10;54.97
8703;BME280;9002;42.708;23.186;2024-02-04T11:01:18;95405.94;;;10.16;53.88
8703;BME280;9002;42.708;23.186;2024-02-04T11:03:46;95407.72;;;10.15;54.68
8703;BME280;9002;42.708;23.186;2024-02-04T11:06:14;95402.13;;;10.07;54.53
8703;BME280;9002;42.708;23.186;2024-02-04T11:08:42;95392.88;;;10.11;54.36
8703;BME280;9002;42.708;23.186;2024-02-04T11:11:11;95405.13;;;10.15;54.80
8703;BME280;9002;42.708;23.186;2024-02-04T11:13:42;95356.22;;;9.90;54.12
8703;BME280;9002;42.708;23.186;2024-02-04T11:16:25;95404.47;;;10.20;53.52
8703;BME280;9002;42.708;23.186;2024-02-04T11:19:10;95376.09;;;10.13;52.76
8703;BME280;9002;42.708;23.186;2024-02-04T11:22:04;95365.19;;;10.11;53.70
8703;BME280;9002;42.708;23.186;2024-02-04T11:24:49;95387.94;;;10.21;53.00
8703;BME280;9002;42.708;23.186;2024-02-04T11:27:20;95374.19;;;10.20;53.66
8703;BME280;9002;42.708;23.186;2024-02-04T11:29:56;95375.56;;;10.23;53.00
8703;BME280;9002;42.708;23.186;2024-02-04T11:32:25;95353.72;;;10.19;53.13
8703;BME280;9002;42.708;23.186;2024-02-04T11:34:53;95361.25;;;10.32;53.58
8703;BME280;9002;42.708;23.186;2024-02-04T11:37:26;95349.56;;;10.18;52.34
8703;BME280;9002;42.708;23.186;2024-02-04T11:39:54;95357.22;;;10.36;52.89
8703;BME280;9002;42.708;23.186;2024-02-04T11:42:33;95349.81;;;10.28;53.71
8703;BME280;9002;42.708;23.186;2024-02-04T11:45:09;95367.44;;;10.55;51.57
8703;BME280;9002;42.708;23.186;2024-02-04T11:47:39;95370.13;;;10.60;52.16
8703;BME280;9002;42.708;23.186;2024-02-04T11:50:07;95316.22;;;10.33;52.60
8703;BME280;9002;42.708;23.186;2024-02-04T11:52:35;95335.72;;;11.04;50.08
8703;BME280;9002;42.708;23.186;2024-02-04T11:55:03;95331.88;;;12.03;48.14
8703;BME280;9002;42.708;23.186;2024-02-04T11:57:32;95333.81;;;12.95;46.51
8703;BME280;9002;42.708;23.186;2024-02-04T12:00:00;95323.88;;;13.46;44.49
8703;BME280;9002;42.708;23.186;2024-02-04T12:02:31;95314.50;;;13.40;43.76
8703;BME280;9002;42.708;23.186;2024-02-04T12:05:00;95304.94;;;13.87;42.68
8703;BME280;9002;42.708;23.186;2024-02-04T12:07:27;95314.22;;;13.73;43.08
8703;BME280;9002;42.708;23.186;2024-02-04T12:09:56;95310.19;;;13.23;44.06
8703;BME280;9002;42.708;23.186;2024-02-04T12:12:23;95316.19;;;13.29;44.43
8703;BME280;9002;42.708;23.186;2024-02-04T12:14:52;95327.84;;;12.99;45.27
8703;BME280;9002;42.708;23.186;2024-02-04T12:17:19;95298.81;;;12.37;45.22
8703;BME280;9002;42.708;23.186;2024-02-04T12:19:46;95308.50;;;12.63;45.52
8703;BME280;9002;42.708;23.186;2024-02-04T12:22:17;95322.69;;;12.77;44.99
8703;BME280;9002;42.708;23.186;2024-02-04T12:24:45;95286.19;;;12.45;45.98
8703;BME280;9002;42.708;23.186;2024-02-04T12:27:15;95285.78;;;12.32;46.42
8703;BME280;9002;42.708;23.186;2024-02-04T12:29:43;95318.34;;;12.61;45.69
8703;BME280;9002;42.708;23.186;2024-02-04T12:32:25;95301.06;;;12.50;45.11
8703;BME280;9002;42.708;23.186;2024-02-04T12:34:53;95303.03;;;12.87;44.51
8703;BME280;9002;42.708;23.186;2024-02-04T12:37:28;95294.16;;;13.37;44.33
8703;BME280;9002;42.708;23.186;2024-02-04T12:39:55;95283.22;;;13.72;42.95
8703;BME280;9002;42.708;23.186;2024-02-04T12:42:25;95275.88;;;13.63;42.38
8703;BME280;9002;42.708;23.186;2024-02-04T12:45:01;95276.53;;;13.44;43.29
8703;BME280;9002;42.708;23.186;2024-02-04T12:47:28;95286.19;;;13.48;43.39
8703;BME280;9002;42.708;23.186;2024-02-04T12:52:28;95311.09;;;12.85;43.91
8703;BME280;9002;42.708;23.186;2024-02-04T12:54:59;95270.25;;;12.15;45.13
8703;BME280;9002;42.708;23.186;2024-02-04T12:57:26;95295.84;;;12.06;45.79
8703;BME280;9002;42.708;23.186;2024-02-04T13:00:04;95268.00;;;12.02;46.93
8703;BME280;9002;42.708;23.186;2024-02-04T13:02:45;95296.72;;;11.95;46.64
8703;BME280;9002;42.708;23.186;2024-02-04T13:05:21;95312.75;;;11.75;47.81
8703;BME280;9002;42.708;23.186;2024-02-04T13:07:54;95317.41;;;11.73;47.56
8703;BME280;9002;42.708;23.186;2024-02-04T13:10:23;95309.00;;;11.66;47.44
8703;BME280;9002;42.708;23.186;2024-02-04T13:13:04;95278.72;;;11.55;47.95
8703;BME280;9002;42.708;23.186;2024-02-04T13:15:38;95340.38;;;11.64;48.20
8703;BME280;9002;42.708;23.186;2024-02-04T13:18:19;95284.25;;;11.42;47.66
8703;BME280;9002;42.708;23.186;2024-02-04T13:21:08;95292.25;;;11.40;48.65
8703;BME280;9002;42.708;23.186;2024-02-04T13:23:37;95263.72;;;11.40;47.61
8703;BME280;9002;42.708;23.186;2024-02-04T13:26:05;95333.41;;;12.20;46.19
8703;BME280;9002;42.708;23.186;2024-02-04T13:28:32;95316.75;;;12.16;46.26
8703;BME280;9002;42.708;23.186;2024-02-04T13:30:59;95307.03;;;12.07;46.07
8703;BME280;9002;42.708;23.186;2024-02-04T13:33:26;95295.22;;;11.99;46.13